sensor_id;sensor_type;location;lat;lon;timestamp;P1;durP1;ratioP1;P2;durP2;ratioP2
44572;SDS011;31762;45.420;10.072;2022-09-25T00:00:47;9.43;;;8.27;;
44572;SDS011;31762;45.420;10.072;2022-09-25T00:05:51;10.88;;;7.80;;
44572;SDS011;31762;45.420;10.072;2022-09-25T00:10:53;10.25;;;8.52;;
44572;SDS011;31762;45.420;10.072;2022-09-25T00:15:55;10.30;;;8.93;;
44572;SDS011;31762;45.420;10.072;2022-09-25T00:21:00;10.50;;;8.50;;
44572;SDS011;31762;45.420;10.072;2022-09-25T00:26:03;9.48;;;8.50;;
44572;SDS011;31762;45.420;10.072;2022-09-25T00:31:05;11.10;;;8.73;;
44572;SDS011;31762;45.420;10.072;2022-09-25T00:36:09;11.07;;;9.25;;
44572;SDS011;31762;45.420;10.072;2022-09-25T00:41:11;10.90;;;9.80;;
44572;SDS011;31762;45.420;10.072;2022-09-25T00:51:46;12.02;;;10.60;;
44572;SDS011;31762;45.420;10.072;2022-09-25T00:56:55;13.40;;;10.38;;
44572;SDS011;31762;45.420;10.072;2022-09-25T01:01:59;13.38;;;9.80;;
44572;SDS011;31762;45.420;10.072;2022-09-25T01:07:01;13.57;;;11.13;;
44572;SDS011;31762;45.420;10.072;2022-09-25T01:12:03;13.30;;;11.03;;
44572;SDS011;31762;45.420;10.072;2022-09-25T01:17:42;14.43;;;11.83;;
44572;SDS011;31762;45.420;10.072;2022-09-25T01:22:35;14.27;;;11.43;;
44572;SDS011;31762;45.420;10.072;2022-09-25T01:33:12;17.83;;;12.52;;
44572;SDS011;31762;45.420;10.072;2022-09-25T01:38:43;16.63;;;12.50;;
44572;SDS011;31762;45.420;10.072;2022-09-25T01:44:01;14.30;;;12.17;;
44572;SDS011;31762;45.420;10.072;2022-09-25T01:49:31;18.52;;;12.65;;
44572;SDS011;31762;45.420;10.072;2022-09-25T01:54:36;14.73;;;11.37;;
44572;SDS011;31762;45.420;10.072;2022-09-25T02:00:17;14.25;;;12.05;;
44572;SDS011;31762;45.420;10.072;2022-09-25T02:10:43;16.55;;;13.07;;
44572;SDS011;31762;45.420;10.072;2022-09-25T02:15:50;16.15;;;13.18;;
44572;SDS011;31762;45.420;10.072;2022-09-25T02:21:00;15.90;;;13.00;;
44572;SDS011;31762;45.420;10.072;2022-09-25T02:26:27;17.50;;;13.70;;
44572;SDS011;31762;45.420;10.072;2022-09-25T02:31:35;15.82;;;13.25;;
44572;SDS011;31762;45.420;10.072;2022-09-25T02:36:40;15.00;;;13.20;;
44572;SDS011;31762;45.420;10.072;2022-09-25T02:41:46;14.85;;;12.40;;
44572;SDS011;31762;45.420;10.072;2022-09-25T02:52:05;16.50;;;12.90;;
44572;SDS011;31762;45.420;10.072;2022-09-25T03:02:23;15.43;;;12.73;;
44572;SDS011;31762;45.420;10.072;2022-09-25T03:07:28;16.50;;;12.75;;
44572;SDS011;31762;45.420;10.072;2022-09-25T03:12:34;18.83;;;13.52;;
44572;SDS011;31762;45.420;10.072;2022-09-25T03:17:36;14.63;;;12.30;;
44572;SDS011;31762;45.420;10.072;2022-09-25T03:22:39;16.17;;;12.88;;
44572;SDS011;31762;45.420;10.072;2022-09-25T03:27:40;16.65;;;13.88;;
44572;SDS011;31762;45.420;10.072;2022-09-25T03:32:42;15.88;;;13.50;;
44572;SDS011;31762;45.420;10.072;2022-09-25T03:37:44;17.23;;;13.52;;
44572;SDS011;31762;45.420;10.072;2022-09-25T03:42:45;16.25;;;13.07;;
44572;SDS011;31762;45.420;10.072;2022-09-25T03:47:47;14.23;;;11.48;;
44572;SDS011;31762;45.420;10.072;2022-09-25T03:52:49;16.88;;;12.25;;
44572;SDS011;31762;45.420;10.072;2022-09-25T03:57:50;16.42;;;12.93;;
44572;SDS011;31762;45.420;10.072;2022-09-25T04:02:53;14.40;;;12.77;;
44572;SDS011;31762;45.420;10.072;2022-09-25T04:07:54;15.97;;;13.03;;
44572;SDS011;31762;45.420;10.072;2022-09-25T04:12:56;17.52;;;13.73;;
44572;SDS011;31762;45.420;10.072;2022-09-25T04:17:58;20.10;;;13.98;;
44572;SDS011;31762;45.420;10.072;2022-09-25T04:23:06;16.87;;;13.17;;
44572;SDS011;31762;45.420;10.072;2022-09-25T04:28:08;16.70;;;13.50;;
44572;SDS011;31762;45.420;10.072;2022-09-25T04:33:09;16.07;;;13.67;;
44572;SDS011;31762;45.420;10.072;2022-09-25T04:38:11;17.17;;;14.55;;
44572;SDS011;31762;45.420;10.072;2022-09-25T04:43:13;18.33;;;14.48;;
44572;SDS011;31762;45.420;10.072;2022-09-25T04:48:15;16.60;;;14.17;;
44572;SDS011;31762;45.420;10.072;2022-09-25T04:53:17;16.07;;;12.93;;
44572;SDS011;31762;45.420;10.072;2022-09-25T04:58:19;17.70;;;14.10;;
44572;SDS011;31762;45.420;10.072;2022-09-25T05:03:21;17.10;;;13.20;;
44572;SDS011;31762;45.420;10.072;2022-09-25T05:08:22;16.90;;;12.95;;
44572;SDS011;31762;45.420;10.072;2022-09-25T05:13:24;18.70;;;14.25;;
44572;SDS011;31762;45.420;10.072;2022-09-25T05:18:26;15.38;;;13.23;;
44572;SDS011;31762;45.420;10.072;2022-09-25T05:23:28;20.30;;;14.07;;
44572;SDS011;31762;45.420;10.072;2022-09-25T05:28:30;18.83;;;14.80;;
44572;SDS011;31762;45.420;10.072;2022-09-25T05:33:33;17.00;;;13.70;;
44572;SDS011;31762;45.420;10.072;2022-09-25T05:38:36;16.92;;;14.50;;
44572;SDS011;31762;45.420;10.072;2022-09-25T05:43:40;19.13;;;14.25;;
44572;SDS011;31762;45.420;10.072;2022-09-25T05:48:42;18.20;;;13.40;;
44572;SDS011;31762;45.420;10.072;2022-09-25T05:53:44;17.80;;;13.45;;
44572;SDS011;31762;45.420;10.072;2022-09-25T05:58:46;18.73;;;13.95;;
44572;SDS011;31762;45.420;10.072;2022-09-25T06:03:48;17.65;;;14.57;;
44572;SDS011;31762;45.420;10.072;2022-09-25T06:08:52;17.85;;;14.55;;
44572;SDS011;31762;45.420;10.072;2022-09-25T06:13:54;17.20;;;13.83;;
44572;SDS011;31762;45.420;10.072;2022-09-25T06:18:55;17.93;;;14.23;;
44572;SDS011;31762;45.420;10.072;2022-09-25T06:23:57;18.35;;;14.10;;
44572;SDS011;31762;45.420;10.072;2022-09-25T06:28:59;18.30;;;14.18;;
44572;SDS011;31762;45.420;10.072;2022-09-25T06:34:03;18.27;;;14.50;;
44572;SDS011;31762;45.420;10.072;2022-09-25T06:39:05;18.00;;;13.65;;
44572;SDS011;31762;45.420;10.072;2022-09-25T06:44:07;16.42;;;13.60;;
44572;SDS011;31762;45.420;10.072;2022-09-25T06:49:10;16.20;;;13.00;;
44572;SDS011;31762;45.420;10.072;2022-09-25T06:54:12;18.07;;;14.20;;
44572;SDS011;31762;45.420;10.072;2022-09-25T06:59:14;16.60;;;13.60;;
44572;SDS011;31762;45.420;10.072;2022-09-25T07:04:16;16.38;;;12.82;;
44572;SDS011;31762;45.420;10.072;2022-09-25T07:09:18;16.95;;;13.00;;
44572;SDS011;31762;45.420;10.072;2022-09-25T07:14:19;15.23;;;11.68;;
44572;SDS011;31762;45.420;10.072;2022-09-25T07:24:28;14.90;;;11.70;;
44572;SDS011;31762;45.420;10.072;2022-09-25T07:29:29;14.40;;;11.25;;
44572;SDS011;31762;45.420;10.072;2022-09-25T07:34:33;14.98;;;11.82;;
44572;SDS011;31762;45.420;10.072;2022-09-25T07:39:35;14.90;;;11.17;;
44572;SDS011;31762;45.420;10.072;2022-09-25T07:44:37;14.10;;;11.23;;
44572;SDS011;31762;45.420;10.072;2022-09-25T07:49:39;16.13;;;11.27;;
44572;SDS011;31762;45.420;10.072;2022-09-25T07:54:41;12.23;;;9.65;;
44572;SDS011;31762;45.420;10.072;2022-09-25T07:59:42;13.52;;;9.55;;
44572;SDS011;31762;45.420;10.072;2022-09-25T08:04:44;14.63;;;9.88;;
44572;SDS011;31762;45.420;10.072;2022-09-25T08:09:46;15.10;;;11.05;;
44572;SDS011;31762;45.420;10.072;2022-09-25T08:14:47;13.88;;;10.95;;
44572;SDS011;31762;45.420;10.072;2022-09-25T08:19:50;12.85;;;10.43;;
44572;SDS011;31762;45.420;10.072;2022-09-25T08:24:51;12.07;;;10.05;;
44572;SDS011;31762;45.420;10.072;2022-09-25T08:29:53;13.57;;;9.80;;
44572;SDS011;31762;45.420;10.072;2022-09-25T08:34:55;11.60;;;10.40;;
44572;SDS011;31762;45.420;10.072;2022-09-25T08:39:57;14.00;;;10.00;;
44572;SDS011;31762;45.420;10.072;2022-09-25T08:45:01;12.68;;;9.93;;
44572;SDS011;31762;45.420;10.072;2022-09-25T08:50:23;13.27;;;9.93;;
44572;SDS011;31762;45.420;10.072;2022-09-25T08:55:27;12.98;;;10.50;;
44572;SDS011;31762;45.420;10.072;2022-09-25T09:00:31;14.07;;;9.88;;
44572;SDS011;31762;45.420;10.072;2022-09-25T09:05:33;11.38;;;9.35;;
44572;SDS011;31762;45.420;10.072;2022-09-25T09:16:27;11.43;;;9.27;;
44572;SDS011;31762;45.420;10.072;2022-09-25T09:53:38;7.95;;;6.07;;
44572;SDS011;31762;45.420;10.072;2022-09-25T09:58:56;6.80;;;5.63;;
44572;SDS011;31762;45.420;10.072;2022-09-25T10:04:13;9.85;;;6.55;;
44572;SDS011;31762;45.420;10.072;2022-09-25T10:09:17;8.40;;;6.47;;
44572;SDS011;31762;45.420;10.072;2022-09-25T10:14:20;6.72;;;5.72;;
44572;SDS011;31762;45.420;10.072;2022-09-25T10:19:27;8.07;;;6.20;;
44572;SDS011;31762;45.420;10.072;2022-09-25T10:30:03;7.22;;;6.10;;
44572;SDS011;31762;45.420;10.072;2022-09-25T10:35:13;6.47;;;5.60;;
44572;SDS011;31762;45.420;10.072;2022-09-25T10:45:38;6.70;;;5.78;;
44572;SDS011;31762;45.420;10.072;2022-09-25T10:50:40;7.47;;;5.67;;
44572;SDS011;31762;45.420;10.072;2022-09-25T10:55:42;6.43;;;5.43;;
44572;SDS011;31762;45.420;10.072;2022-09-25T11:06:34;5.28;;;4.78;;
44572;SDS011;31762;45.420;10.072;2022-09-25T11:11:22;9.10;;;7.30;;
44572;SDS011;31762;45.420;10.072;2022-09-25T11:16:46;6.70;;;5.27;;
44572;SDS011;31762;45.420;10.072;2022-09-25T11:21:58;5.70;;;4.72;;
44572;SDS011;31762;45.420;10.072;2022-09-25T11:27:11;5.15;;;4.10;;
44572;SDS011;31762;45.420;10.072;2022-09-25T11:32:53;4.38;;;3.67;;
44572;SDS011;31762;45.420;10.072;2022-09-25T11:38:06;5.97;;;4.25;;
44572;SDS011;31762;45.420;10.072;2022-09-25T11:43:37;5.05;;;4.35;;
44572;SDS011;31762;45.420;10.072;2022-09-25T11:49:25;5.20;;;4.20;;
44572;SDS011;31762;45.420;10.072;2022-09-25T12:21:38;3.33;;;3.03;;
44572;SDS011;31762;45.420;10.072;2022-09-25T12:47:57;4.28;;;2.75;;
44572;SDS011;31762;45.420;10.072;2022-09-25T12:53:07;4.07;;;3.65;;
44572;SDS011;31762;45.420;10.072;2022-09-25T12:58:38;3.47;;;2.27;;
44572;SDS011;31762;45.420;10.072;2022-09-25T13:09:44;3.45;;;3.15;;
44572;SDS011;31762;45.420;10.072;2022-09-25T13:14:58;2.85;;;2.55;;
44572;SDS011;31762;45.420;10.072;2022-09-25T13:25:40;3.55;;;3.13;;
44572;SDS011;31762;45.420;10.072;2022-09-25T13:31:01;4.10;;;3.70;;
44572;SDS011;31762;45.420;10.072;2022-09-25T13:41:24;3.80;;;3.45;;
44572;SDS011;31762;45.420;10.072;2022-09-25T13:46:26;2.57;;;2.30;;
44572;SDS011;31762;45.420;10.072;2022-09-25T13:51:33;3.45;;;2.60;;
44572;SDS011;31762;45.420;10.072;2022-09-25T14:01:41;2.55;;;2.35;;
44572;SDS011;31762;45.420;10.072;2022-09-25T14:06:49;4.05;;;2.45;;
44572;SDS011;31762;45.420;10.072;2022-09-25T14:12:04;2.55;;;2.35;;
44572;SDS011;31762;45.420;10.072;2022-09-25T14:17:13;3.28;;;2.45;;
44572;SDS011;31762;45.420;10.072;2022-09-25T14:22:20;3.28;;;2.70;;
44572;SDS011;31762;45.420;10.072;2022-09-25T14:27:35;3.45;;;2.35;;
44572;SDS011;31762;45.420;10.072;2022-09-25T14:32:51;3.03;;;2.03;;
44572;SDS011;31762;45.420;10.072;2022-09-25T14:43:34;2.53;;;1.92;;
44572;SDS011;31762;45.420;10.072;2022-09-25T14:48:51;3.47;;;2.20;;
44572;SDS011;31762;45.420;10.072;2022-09-25T14:54:14;2.45;;;1.88;;
44572;SDS011;31762;45.420;10.072;2022-09-25T14:59:23;2.70;;;1.90;;
44572;SDS011;31762;45.420;10.072;2022-09-25T15:04:32;3.63;;;2.20;;
44572;SDS011;31762;45.420;10.072;2022-09-25T15:14:37;2.70;;;2.05;;
44572;SDS011;31762;45.420;10.072;2022-09-25T15:19:42;2.80;;;1.95;;
44572;SDS011;31762;45.420;10.072;2022-09-25T15:24:47;2.00;;;1.73;;
44572;SDS011;31762;45.420;10.072;2022-09-25T15:29:51;2.10;;;1.88;;
44572;SDS011;31762;45.420;10.072;2022-09-25T15:35:05;3.85;;;2.47;;
44572;SDS011;31762;45.420;10.072;2022-09-25T15:45:33;3.17;;;2.63;;
44572;SDS011;31762;45.420;10.072;2022-09-25T15:50:41;5.33;;;3.13;;
44572;SDS011;31762;45.420;10.072;2022-09-25T15:55:44;3.17;;;2.87;;
44572;SDS011;31762;45.420;10.072;2022-09-25T16:00:58;3.33;;;3.00;;
44572;SDS011;31762;45.420;10.072;2022-09-25T16:06:01;3.10;;;2.80;;
44572;SDS011;31762;45.420;10.072;2022-09-25T16:16:27;3.15;;;2.50;;
44572;SDS011;31762;45.420;10.072;2022-09-25T16:21:30;4.18;;;3.40;;
44572;SDS011;31762;45.420;10.072;2022-09-25T16:26:40;3.67;;;2.50;;
44572;SDS011;31762;45.420;10.072;2022-09-25T16:31:43;5.35;;;3.67;;
44572;SDS011;31762;45.420;10.072;2022-09-25T16:36:45;4.43;;;3.58;;
44572;SDS011;31762;45.420;10.072;2022-09-25T16:41:47;4.38;;;3.65;;
44572;SDS011;31762;45.420;10.072;2022-09-25T16:52:02;5.57;;;4.00;;
44572;SDS011;31762;45.420;10.072;2022-09-25T16:57:07;5.07;;;3.80;;
44572;SDS011;31762;45.420;10.072;2022-09-25T17:02:31;6.37;;;3.93;;
44572;SDS011;31762;45.420;10.072;2022-09-25T17:07:37;6.03;;;4.30;;
44572;SDS011;31762;45.420;10.072;2022-09-25T17:12:39;7.68;;;4.10;;
44572;SDS011;31762;45.420;10.072;2022-09-25T17:17:42;5.65;;;4.32;;
44572;SDS011;31762;45.420;10.072;2022-09-25T17:22:43;5.60;;;4.22;;
44572;SDS011;31762;45.420;10.072;2022-09-25T17:27:45;5.23;;;4.43;;
44572;SDS011;31762;45.420;10.072;2022-09-25T17:32:47;5.93;;;4.27;;
44572;SDS011;31762;45.420;10.072;2022-09-25T17:37:49;6.38;;;4.00;;
44572;SDS011;31762;45.420;10.072;2022-09-25T17:42:51;4.57;;;4.03;;
44572;SDS011;31762;45.420;10.072;2022-09-25T17:47:53;6.47;;;4.97;;
44572;SDS011;31762;45.420;10.072;2022-09-25T17:52:54;6.10;;;4.40;;
44572;SDS011;31762;45.420;10.072;2022-09-25T17:57:56;6.15;;;5.05;;
44572;SDS011;31762;45.420;10.072;2022-09-25T18:03:00;5.57;;;4.97;;
44572;SDS011;31762;45.420;10.072;2022-09-25T18:08:02;6.78;;;5.13;;
44572;SDS011;31762;45.420;10.072;2022-09-25T18:13:05;5.72;;;4.55;;
44572;SDS011;31762;45.420;10.072;2022-09-25T18:18:08;6.53;;;5.43;;
44572;SDS011;31762;45.420;10.072;2022-09-25T18:23:09;8.90;;;5.05;;
44572;SDS011;31762;45.420;10.072;2022-09-25T18:28:11;5.97;;;4.95;;
44572;SDS011;31762;45.420;10.072;2022-09-25T18:33:15;6.90;;;5.43;;
44572;SDS011;31762;45.420;10.072;2022-09-25T18:38:19;6.45;;;5.03;;
44572;SDS011;31762;45.420;10.072;2022-09-25T18:43:21;5.57;;;4.60;;
44572;SDS011;31762;45.420;10.072;2022-09-25T18:48:23;6.25;;;5.18;;
44572;SDS011;31762;45.420;10.072;2022-09-25T18:53:25;7.13;;;5.10;;
44572;SDS011;31762;45.420;10.072;2022-09-25T18:58:29;6.60;;;5.43;;
44572;SDS011;31762;45.420;10.072;2022-09-25T19:03:33;6.82;;;5.40;;
44572;SDS011;31762;45.420;10.072;2022-09-25T19:08:41;6.20;;;4.95;;
44572;SDS011;31762;45.420;10.072;2022-09-25T19:13:43;6.50;;;5.85;;
44572;SDS011;31762;45.420;10.072;2022-09-25T19:18:46;6.78;;;6.05;;
44572;SDS011;31762;45.420;10.072;2022-09-25T19:23:48;6.60;;;5.07;;
44572;SDS011;31762;45.420;10.072;2022-09-25T19:28:53;7.90;;;5.38;;
44572;SDS011;31762;45.420;10.072;2022-09-25T19:34:00;6.47;;;5.60;;
44572;SDS011;31762;45.420;10.072;2022-09-25T19:39:07;6.85;;;5.60;;
44572;SDS011;31762;45.420;10.072;2022-09-25T19:44:11;7.38;;;5.80;;
44572;SDS011;31762;45.420;10.072;2022-09-25T19:49:15;7.20;;;5.82;;
44572;SDS011;31762;45.420;10.072;2022-09-25T19:54:18;7.30;;;6.57;;
44572;SDS011;31762;45.420;10.072;2022-09-25T19:59:21;7.60;;;5.87;;
44572;SDS011;31762;45.420;10.072;2022-09-25T20:04:23;6.88;;;5.50;;
44572;SDS011;31762;45.420;10.072;2022-09-25T20:09:27;6.47;;;5.38;;
44572;SDS011;31762;45.420;10.072;2022-09-25T20:14:29;7.78;;;6.20;;
44572;SDS011;31762;45.420;10.072;2022-09-25T20:19:32;8.35;;;6.05;;
44572;SDS011;31762;45.420;10.072;2022-09-25T20:24:36;8.65;;;6.53;;
44572;SDS011;31762;45.420;10.072;2022-09-25T20:29:39;7.83;;;6.53;;
44572;SDS011;31762;45.420;10.072;2022-09-25T20:34:43;7.45;;;5.80;;
44572;SDS011;31762;45.420;10.072;2022-09-25T20:39:48;8.65;;;6.85;;
44572;SDS011;31762;45.420;10.072;2022-09-25T20:44:49;8.73;;;5.97;;
44572;SDS011;31762;45.420;10.072;2022-09-25T20:49:54;7.53;;;5.95;;
44572;SDS011;31762;45.420;10.072;2022-09-25T20:54:56;7.53;;;6.45;;
44572;SDS011;31762;45.420;10.072;2022-09-25T20:59:58;8.35;;;6.53;;
44572;SDS011;31762;45.420;10.072;2022-09-25T21:05:02;8.98;;;7.13;;
44572;SDS011;31762;45.420;10.072;2022-09-25T21:10:04;7.70;;;6.82;;
44572;SDS011;31762;45.420;10.072;2022-09-25T21:15:08;9.13;;;7.07;;
44572;SDS011;31762;45.420;10.072;2022-09-25T21:20:09;8.32;;;6.93;;
44572;SDS011;31762;45.420;10.072;2022-09-25T21:25:12;9.23;;;7.28;;
44572;SDS011;31762;45.420;10.072;2022-09-25T21:30:14;7.90;;;6.47;;
44572;SDS011;31762;45.420;10.072;2022-09-25T21:35:16;8.80;;;6.97;;
44572;SDS011;31762;45.420;10.072;2022-09-25T21:40:17;8.95;;;7.53;;
44572;SDS011;31762;45.420;10.072;2022-09-25T21:45:19;8.80;;;7.22;;
44572;SDS011;31762;45.420;10.072;2022-09-25T21:50:21;9.25;;;7.95;;
44572;SDS011;31762;45.420;10.072;2022-09-25T21:55:23;9.17;;;7.13;;
44572;SDS011;31762;45.420;10.072;2022-09-25T22:00:25;11.15;;;7.88;;
44572;SDS011;31762;45.420;10.072;2022-09-25T22:05:27;11.07;;;7.57;;
44572;SDS011;31762;45.420;10.072;2022-09-25T22:10:29;9.97;;;7.90;;
44572;SDS011;31762;45.420;10.072;2022-09-25T22:15:30;9.87;;;7.43;;
44572;SDS011;31762;45.420;10.072;2022-09-25T22:20:32;8.73;;;7.23;;
44572;SDS011;31762;45.420;10.072;2022-09-25T22:25:37;9.55;;;7.95;;
44572;SDS011;31762;45.420;10.072;2022-09-25T22:30:39;9.23;;;7.70;;
44572;SDS011;31762;45.420;10.072;2022-09-25T22:35:41;11.10;;;7.55;;
44572;SDS011;31762;45.420;10.072;2022-09-25T22:40:42;8.93;;;7.70;;
44572;SDS011;31762;45.420;10.072;2022-09-25T22:45:48;10.98;;;7.50;;
44572;SDS011;31762;45.420;10.072;2022-09-25T22:50:54;8.95;;;7.43;;
44572;SDS011;31762;45.420;10.072;2022-09-25T23:01:14;8.60;;;7.22;;
44572;SDS011;31762;45.420;10.072;2022-09-25T23:06:19;10.18;;;7.72;;
44572;SDS011;31762;45.420;10.072;2022-09-25T23:11:21;9.68;;;7.90;;
44572;SDS011;31762;45.420;10.072;2022-09-25T23:16:24;8.77;;;7.88;;
44572;SDS011;31762;45.420;10.072;2022-09-25T23:21:27;9.37;;;7.80;;
44572;SDS011;31762;45.420;10.072;2022-09-25T23:26:30;10.90;;;8.15;;
44572;SDS011;31762;45.420;10.072;2022-09-25T23:31:32;10.97;;;9.13;;
44572;SDS011;31762;45.420;10.072;2022-09-25T23:36:33;10.02;;;8.13;;
44572;SDS011;31762;45.420;10.072;2022-09-25T23:41:36;10.90;;;9.05;;
44572;SDS011;31762;45.420;10.072;2022-09-25T23:46:40;11.35;;;8.98;;
44572;SDS011;31762;45.420;10.072;2022-09-25T23:51:43;11.68;;;9.23;;
44572;SDS011;31762;45.420;10.072;2022-09-25T23:56:45;10.55;;;8.77;;
